sensor_id;sensor_type;location;lat;lon;timestamp;temperature;humidity
19220;DHT22;9744;49.364;7.484;2023-04-01T00:02:15;7.30;99.90
19220;DHT22;9744;49.364;7.484;2023-04-01T00:04:42;7.30;99.90
19220;DHT22;9744;49.364;7.484;2023-04-01T00:07:10;7.30;99.90
19220;DHT22;9744;49.364;7.484;2023-04-01T00:09:37;7.30;99.90
19220;DHT22;9744;49.364;7.484;2023-04-01T00:12:06;7.30;99.90
19220;DHT22;9744;49.364;7.484;2023-04-01T00:14:33;7.30;99.90
19220;DHT22;9744;49.364;7.484;2023-04-01T00:17:03;7.30;99.90
19220;DHT22;9744;49.364;7.484;2023-04-01T00:19:30;7.30;99.90
19220;DHT22;9744;49.364;7.484;2023-04-01T00:21:58;7.30;99.90
19220;DHT22;9744;49.364;7.484;2023-04-01T00:24:25;7.30;99.90
19220;DHT22;9744;49.364;7.484;2023-04-01T00:26:53;7.30;99.90
19220;DHT22;9744;49.364;7.484;2023-04-01T00:29:21;7.30;99.90
19220;DHT22;9744;49.364;7.484;2023-04-01T00:31:49;7.30;99.90
19220;DHT22;9744;49.364;7.484;2023-04-01T00:34:17;7.40;99.90
19220;DHT22;9744;49.364;7.484;2023-04-01T00:36:44;7.40;99.90
19220;DHT22;9744;49.364;7.484;2023-04-01T00:39:11;7.40;99.90
19220;DHT22;9744;49.364;7.484;2023-04-01T00:41:38;7.40;99.90
19220;DHT22;9744;49.364;7.484;2023-04-01T00:44:16;7.40;99.90
19220;DHT22;9744;49.364;7.484;2023-04-01T00:46:45;7.40;99.90
19220;DHT22;9744;49.364;7.484;2023-04-01T00:49:13;7.40;99.90
19220;DHT22;9744;49.364;7.484;2023-04-01T00:51:41;7.40;99.90
19220;DHT22;9744;49.364;7.484;2023-04-01T00:54:09;7.40;99.90
19220;DHT22;9744;49.364;7.484;2023-04-01T00:56:39;7.40;99.90
19220;DHT22;9744;49.364;7.484;2023-04-01T00:59:11;7.40;99.90
19220;DHT22;9744;49.364;7.484;2023-04-01T01:01:40;7.40;99.90
19220;DHT22;9744;49.364;7.484;2023-04-01T01:04:21;7.50;99.90
19220;DHT22;9744;49.364;7.484;2023-04-01T01:07:00;7.50;99.90
19220;DHT22;9744;49.364;7.484;2023-04-01T01:09:38;7.50;99.90
19220;DHT22;9744;49.364;7.484;2023-04-01T01:12:11;7.50;99.90
19220;DHT22;9744;49.364;7.484;2023-04-01T01:14:52;7.50;99.90
19220;DHT22;9744;49.364;7.484;2023-04-01T01:17:26;7.50;99.90
19220;DHT22;9744;49.364;7.484;2023-04-01T01:26:43;7.30;99.90
19220;DHT22;9744;49.364;7.484;2023-04-01T01:29:30;7.30;99.90
19220;DHT22;9744;49.364;7.484;2023-04-01T01:32:08;7.30;99.90
19220;DHT22;9744;49.364;7.484;2023-04-01T01:34:42;7.30;99.90
19220;DHT22;9744;49.364;7.484;2023-04-01T01:37:18;7.40;99.90
19220;DHT22;9744;49.364;7.484;2023-04-01T01:39:56;7.30;99.90
19220;DHT22;9744;49.364;7.484;2023-04-01T01:42:25;7.40;99.90
19220;DHT22;9744;49.364;7.484;2023-04-01T01:44:56;7.30;99.90
19220;DHT22;9744;49.364;7.484;2023-04-01T01:47:25;7.30;99.90
19220;DHT22;9744;49.364;7.484;2023-04-01T01:49:55;7.30;99.90
19220;DHT22;9744;49.364;7.484;2023-04-01T01:52:24;7.40;99.90
19220;DHT22;9744;49.364;7.484;2023-04-01T01:54:55;7.40;99.90
19220;DHT22;9744;49.364;7.484;2023-04-01T01:57:29;7.30;99.90
19220;DHT22;9744;49.364;7.484;2023-04-01T02:00:04;7.30;99.90
19220;DHT22;9744;49.364;7.484;2023-04-01T02:02:39;7.30;99.90
19220;DHT22;9744;49.364;7.484;2023-04-01T02:05:08;7.30;99.90
19220;DHT22;9744;49.364;7.484;2023-04-01T02:07:39;7.30;99.90
19220;DHT22;9744;49.364;7.484;2023-04-01T02:10:09;7.30;99.90
19220;DHT22;9744;49.364;7.484;2023-04-01T02:12:38;7.30;99.90
19220;DHT22;9744;49.364;7.484;2023-04-01T02:15:07;7.20;99.90
19220;DHT22;9744;49.364;7.484;2023-04-01T02:17:40;7.20;99.90
19220;DHT22;9744;49.364;7.484;2023-04-01T02:20:14;7.10;99.90
19220;DHT22;9744;49.364;7.484;2023-04-01T02:22:46;7.10;99.90
19220;DHT22;9744;49.364;7.484;2023-04-01T02:25:17;7.00;99.90
19220;DHT22;9744;49.364;7.484;2023-04-01T02:27:46;7.00;99.90
19220;DHT22;9744;49.364;7.484;2023-04-01T02:30:14;7.00;99.90
19220;DHT22;9744;49.364;7.484;2023-04-01T02:32:42;7.00;99.90
19220;DHT22;9744;49.364;7.484;2023-04-01T02:35:11;7.00;99.90
19220;DHT22;9744;49.364;7.484;2023-04-01T02:37:40;7.00;99.90
19220;DHT22;9744;49.364;7.484;2023-04-01T02:40:39;7.00;99.90
19220;DHT22;9744;49.364;7.484;2023-04-01T02:43:07;7.00;99.90
19220;DHT22;9744;49.364;7.484;2023-04-01T02:45:35;7.00;99.90
19220;DHT22;9744;49.364;7.484;2023-04-01T02:48:03;7.00;99.90
19220;DHT22;9744;49.364;7.484;2023-04-01T02:50:30;7.00;99.90
19220;DHT22;9744;49.364;7.484;2023-04-01T02:52:57;6.90;99.90
19220;DHT22;9744;49.364;7.484;2023-04-01T02:55:24;6.90;99.90
19220;DHT22;9744;49.364;7.484;2023-04-01T02:57:53;6.90;99.90
19220;DHT22;9744;49.364;7.484;2023-04-01T03:00:20;6.90;99.90
19220;DHT22;9744;49.364;7.484;2023-04-01T03:02:47;6.90;99.90
19220;DHT22;9744;49.364;7.484;2023-04-01T03:05:14;6.90;99.90
19220;DHT22;9744;49.364;7.484;2023-04-01T03:07:42;6.90;99.90
19220;DHT22;9744;49.364;7.484;2023-04-01T03:10:09;6.90;99.90
19220;DHT22;9744;49.364;7.484;2023-04-01T03:12:37;6.90;99.90
19220;DHT22;9744;49.364;7.484;2023-04-01T03:15:27;6.90;99.90
19220;DHT22;9744;49.364;7.484;2023-04-01T03:17:54;6.90;99.90
19220;DHT22;9744;49.364;7.484;2023-04-01T03:20:22;6.90;99.90
19220;DHT22;9744;49.364;7.484;2023-04-01T03:22:49;6.90;99.90
19220;DHT22;9744;49.364;7.484;2023-04-01T03:25:17;6.90;99.90
19220;DHT22;9744;49.364;7.484;2023-04-01T03:27:44;6.90;99.90
19220;DHT22;9744;49.364;7.484;2023-04-01T03:30:12;6.80;99.90
19220;DHT22;9744;49.364;7.484;2023-04-01T03:32:49;6.90;99.90
19220;DHT22;9744;49.364;7.484;2023-04-01T03:35:16;6.90;99.90
19220;DHT22;9744;49.364;7.484;2023-04-01T03:37:45;6.90;99.90
19220;DHT22;9744;49.364;7.484;2023-04-01T03:40:12;6.90;99.90
19220;DHT22;9744;49.364;7.484;2023-04-01T03:42:39;6.90;99.90
19220;DHT22;9744;49.364;7.484;2023-04-01T03:45:07;6.90;99.90
19220;DHT22;9744;49.364;7.484;2023-04-01T03:47:35;6.90;99.90
19220;DHT22;9744;49.364;7.484;2023-04-01T03:50:04;6.90;99.90
19220;DHT22;9744;49.364;7.484;2023-04-01T03:52:32;6.90;99.90
19220;DHT22;9744;49.364;7.484;2023-04-01T03:55:00;6.80;99.90
19220;DHT22;9744;49.364;7.484;2023-04-01T03:57:27;6.90;99.90
19220;DHT22;9744;49.364;7.484;2023-04-01T03:59:58;6.80;99.90
19220;DHT22;9744;49.364;7.484;2023-04-01T04:02:26;6.80;99.90
19220;DHT22;9744;49.364;7.484;2023-04-01T04:04:58;6.80;99.90
19220;DHT22;9744;49.364;7.484;2023-04-01T04:07:28;6.80;99.90
19220;DHT22;9744;49.364;7.484;2023-04-01T04:10:02;6.80;99.90
19220;DHT22;9744;49.364;7.484;2023-04-01T04:12:30;6.80;99.90
19220;DHT22;9744;49.364;7.484;2023-04-01T04:14:57;6.70;99.90
19220;DHT22;9744;49.364;7.484;2023-04-01T04:17:24;6.80;99.90
19220;DHT22;9744;49.364;7.484;2023-04-01T04:19:52;6.80;99.90
19220;DHT22;9744;49.364;7.484;2023-04-01T04:22:20;6.70;99.90
19220;DHT22;9744;49.364;7.484;2023-04-01T04:24:49;6.80;99.90
19220;DHT22;9744;49.364;7.484;2023-04-01T04:27:17;6.80;99.90
19220;DHT22;9744;49.364;7.484;2023-04-01T04:29:54;6.70;99.90
19220;DHT22;9744;49.364;7.484;2023-04-01T04:32:21;6.70;99.90
19220;DHT22;9744;49.364;7.484;2023-04-01T04:34:49;6.70;99.90
19220;DHT22;9744;49.364;7.484;2023-04-01T04:37:18;6.70;99.90
19220;DHT22;9744;49.364;7.484;2023-04-01T04:39:45;6.70;99.90
19220;DHT22;9744;49.364;7.484;2023-04-01T04:42:14;6.70;99.90
19220;DHT22;9744;49.364;7.484;2023-04-01T04:44:41;6.70;99.90
19220;DHT22;9744;49.364;7.484;2023-04-01T04:47:08;6.70;99.90
19220;DHT22;9744;49.364;7.484;2023-04-01T04:49:36;6.70;99.90
19220;DHT22;9744;49.364;7.484;2023-04-01T04:52:07;6.70;99.90
19220;DHT22;9744;49.364;7.484;2023-04-01T04:54:34;6.60;99.90
19220;DHT22;9744;49.364;7.484;2023-04-01T04:57:03;6.60;99.90
19220;DHT22;9744;49.364;7.484;2023-04-01T04:59:36;6.60;99.90
19220;DHT22;9744;49.364;7.484;2023-04-01T05:02:13;6.60;99.90
19220;DHT22;9744;49.364;7.484;2023-04-01T05:04:40;6.60;99.90
19220;DHT22;9744;49.364;7.484;2023-04-01T05:07:10;6.60;99.90
19220;DHT22;9744;49.364;7.484;2023-04-01T05:09:38;6.60;99.90
19220;DHT22;9744;49.364;7.484;2023-04-01T05:12:05;6.60;99.90
19220;DHT22;9744;49.364;7.484;2023-04-01T05:15:00;6.60;99.90
19220;DHT22;9744;49.364;7.484;2023-04-01T05:17:27;6.60;99.90
19220;DHT22;9744;49.364;7.484;2023-04-01T05:20:25;6.60;99.90
19220;DHT22;9744;49.364;7.484;2023-04-01T05:22:55;6.60;99.90
19220;DHT22;9744;49.364;7.484;2023-04-01T05:25:23;6.60;99.90
19220;DHT22;9744;49.364;7.484;2023-04-01T05:27:50;6.60;99.90
19220;DHT22;9744;49.364;7.484;2023-04-01T05:30:19;6.50;99.90
19220;DHT22;9744;49.364;7.484;2023-04-01T05:33:01;6.50;99.90
19220;DHT22;9744;49.364;7.484;2023-04-01T05:35:29;6.50;99.90
19220;DHT22;9744;49.364;7.484;2023-04-01T05:37:56;6.50;99.90
19220;DHT22;9744;49.364;7.484;2023-04-01T05:40:23;6.50;99.90
19220;DHT22;9744;49.364;7.484;2023-04-01T05:42:50;6.50;99.90
19220;DHT22;9744;49.364;7.484;2023-04-01T05:45:19;6.50;99.90
19220;DHT22;9744;49.364;7.484;2023-04-01T05:48:18;6.50;99.90
19220;DHT22;9744;49.364;7.484;2023-04-01T05:50:45;6.50;99.90
19220;DHT22;9744;49.364;7.484;2023-04-01T05:53:13;6.50;99.90
19220;DHT22;9744;49.364;7.484;2023-04-01T05:55:42;6.50;99.90
19220;DHT22;9744;49.364;7.484;2023-04-01T05:58:10;6.50;99.90
19220;DHT22;9744;49.364;7.484;2023-04-01T06:00:40;6.50;99.90
19220;DHT22;9744;49.364;7.484;2023-04-01T06:03:07;6.50;99.90
19220;DHT22;9744;49.364;7.484;2023-04-01T06:05:39;6.60;99.90
19220;DHT22;9744;49.364;7.484;2023-04-01T06:08:10;6.50;99.90
19220;DHT22;9744;49.364;7.484;2023-04-01T06:10:48;6.50;99.90
19220;DHT22;9744;49.364;7.484;2023-04-01T06:13:23;6.50;99.90
19220;DHT22;9744;49.364;7.484;2023-04-01T06:15:59;6.50;99.90
19220;DHT22;9744;49.364;7.484;2023-04-01T06:18:39;6.50;99.90
19220;DHT22;9744;49.364;7.484;2023-04-01T06:24:26;6.50;99.90
19220;DHT22;9744;49.364;7.484;2023-04-01T06:27:02;6.50;99.90
19220;DHT22;9744;49.364;7.484;2023-04-01T06:29:53;6.60;99.90
19220;DHT22;9744;49.364;7.484;2023-04-01T06:32:46;6.60;99.90
19220;DHT22;9744;49.364;7.484;2023-04-01T06:35:30;6.60;99.90
19220;DHT22;9744;49.364;7.484;2023-04-01T06:38:25;6.60;99.90
19220;DHT22;9744;49.364;7.484;2023-04-01T06:41:30;6.60;99.90
19220;DHT22;9744;49.364;7.484;2023-04-01T06:44:14;6.60;99.90
19220;DHT22;9744;49.364;7.484;2023-04-01T06:47:34;6.60;99.90
19220;DHT22;9744;49.364;7.484;2023-04-01T06:50:26;6.60;99.90
19220;DHT22;9744;49.364;7.484;2023-04-01T06:53:35;6.60;99.90
19220;DHT22;9744;49.364;7.484;2023-04-01T06:56:10;6.60;99.90
19220;DHT22;9744;49.364;7.484;2023-04-01T06:58:43;6.70;99.90
19220;DHT22;9744;49.364;7.484;2023-04-01T07:01:16;6.70;99.90
19220;DHT22;9744;49.364;7.484;2023-04-01T07:03:51;6.70;99.90
19220;DHT22;9744;49.364;7.484;2023-04-01T07:06:25;6.70;99.90
19220;DHT22;9744;49.364;7.484;2023-04-01T07:08:59;6.70;99.90
19220;DHT22;9744;49.364;7.484;2023-04-01T07:11:47;6.80;99.90
19220;DHT22;9744;49.364;7.484;2023-04-01T07:14:36;6.80;99.90
19220;DHT22;9744;49.364;7.484;2023-04-01T07:17:07;6.80;99.90
19220;DHT22;9744;49.364;7.484;2023-04-01T07:19:44;6.80;99.90
19220;DHT22;9744;49.364;7.484;2023-04-01T07:22:20;6.80;99.90
19220;DHT22;9744;49.364;7.484;2023-04-01T07:25:13;6.80;99.90
19220;DHT22;9744;49.364;7.484;2023-04-01T07:27:45;6.80;99.90
19220;DHT22;9744;49.364;7.484;2023-04-01T07:30:17;6.90;99.90
19220;DHT22;9744;49.364;7.484;2023-04-01T07:32:48;6.90;99.90
19220;DHT22;9744;49.364;7.484;2023-04-01T07:35:24;6.90;99.90
19220;DHT22;9744;49.364;7.484;2023-04-01T07:38:13;6.90;99.90
19220;DHT22;9744;49.364;7.484;2023-04-01T07:40:48;6.90;99.90
19220;DHT22;9744;49.364;7.484;2023-04-01T07:43:46;6.90;99.90
19220;DHT22;9744;49.364;7.484;2023-04-01T07:46:38;6.90;99.90
19220;DHT22;9744;49.364;7.484;2023-04-01T07:49:13;6.90;99.90
19220;DHT22;9744;49.364;7.484;2023-04-01T07:51:49;7.00;99.90
19220;DHT22;9744;49.364;7.484;2023-04-01T07:58:31;7.00;99.90
19220;DHT22;9744;49.364;7.484;2023-04-01T08:01:05;7.00;99.90
19220;DHT22;9744;49.364;7.484;2023-04-01T08:03:56;7.10;99.90
19220;DHT22;9744;49.364;7.484;2023-04-01T08:06:31;7.10;99.90
19220;DHT22;9744;49.364;7.484;2023-04-01T08:09:06;7.10;99.90
19220;DHT22;9744;49.364;7.484;2023-04-01T08:12:04;7.20;99.90
19220;DHT22;9744;49.364;7.484;2023-04-01T08:15:01;7.20;99.90
19220;DHT22;9744;49.364;7.484;2023-04-01T08:17:57;7.20;99.90
19220;DHT22;9744;49.364;7.484;2023-04-01T08:20:32;7.30;99.90
19220;DHT22;9744;49.364;7.484;2023-04-01T08:23:05;7.30;99.90
19220;DHT22;9744;49.364;7.484;2023-04-01T08:25:41;7.30;99.90
19220;DHT22;9744;49.364;7.484;2023-04-01T08:28:15;7.30;99.90
19220;DHT22;9744;49.364;7.484;2023-04-01T08:30:47;7.30;99.90
19220;DHT22;9744;49.364;7.484;2023-04-01T08:33:21;7.40;99.90
19220;DHT22;9744;49.364;7.484;2023-04-01T08:35:57;7.40;99.90
19220;DHT22;9744;49.364;7.484;2023-04-01T08:38:29;7.40;99.90
19220;DHT22;9744;49.364;7.484;2023-04-01T08:44:37;7.50;99.90
19220;DHT22;9744;49.364;7.484;2023-04-01T08:50:26;7.50;99.90
19220;DHT22;9744;49.364;7.484;2023-04-01T08:53:22;7.50;99.90
19220;DHT22;9744;49.364;7.484;2023-04-01T08:56:03;7.50;99.90
19220;DHT22;9744;49.364;7.484;2023-04-01T08:58:55;7.60;99.90
19220;DHT22;9744;49.364;7.484;2023-04-01T09:05:03;7.60;99.90
19220;DHT22;9744;49.364;7.484;2023-04-01T09:07:45;7.60;99.90
19220;DHT22;9744;49.364;7.484;2023-04-01T09:14:01;7.60;99.90
19220;DHT22;9744;49.364;7.484;2023-04-01T09:17:08;7.60;99.90
19220;DHT22;9744;49.364;7.484;2023-04-01T09:19:59;7.60;99.90
19220;DHT22;9744;49.364;7.484;2023-04-01T09:22:40;7.60;99.90
19220;DHT22;9744;49.364;7.484;2023-04-01T09:25:26;7.70;99.90
19220;DHT22;9744;49.364;7.484;2023-04-01T09:28:07;7.70;99.90
19220;DHT22;9744;49.364;7.484;2023-04-01T09:34:19;7.70;99.90
19220;DHT22;9744;49.364;7.484;2023-04-01T09:37:18;7.70;99.90
19220;DHT22;9744;49.364;7.484;2023-04-01T09:40:14;7.70;99.90
19220;DHT22;9744;49.364;7.484;2023-04-01T09:43:01;7.70;99.90
19220;DHT22;9744;49.364;7.484;2023-04-01T09:45:46;7.70;99.90
19220;DHT22;9744;49.364;7.484;2023-04-01T09:48:31;7.70;99.90
19220;DHT22;9744;49.364;7.484;2023-04-01T09:51:08;7.70;99.90
19220;DHT22;9744;49.364;7.484;2023-04-01T09:53:48;7.70;99.90
19220;DHT22;9744;49.364;7.484;2023-04-01T09:56:45;7.80;99.90
19220;DHT22;9744;49.364;7.484;2023-04-01T09:59:51;7.80;99.90
19220;DHT22;9744;49.364;7.484;2023-04-01T10:03:23;7.80;99.90
19220;DHT22;9744;49.364;7.484;2023-04-01T10:06:41;7.80;99.90
19220;DHT22;9744;49.364;7.484;2023-04-01T10:19:07;7.90;99.90
19220;DHT22;9744;49.364;7.484;2023-04-01T10:35:08;7.80;99.90
19220;DHT22;9744;49.364;7.484;2023-04-01T10:38:19;7.80;99.90
19220;DHT22;9744;49.364;7.484;2023-04-01T10:41:04;7.80;99.90
19220;DHT22;9744;49.364;7.484;2023-04-01T10:44:33;7.90;99.90
19220;DHT22;9744;49.364;7.484;2023-04-01T10:47:46;8.00;99.90
19220;DHT22;9744;49.364;7.484;2023-04-01T10:50:24;7.90;99.90
19220;DHT22;9744;49.364;7.484;2023-04-01T10:53:34;8.00;99.90
19220;DHT22;9744;49.364;7.484;2023-04-01T10:56:46;8.00;99.90
19220;DHT22;9744;49.364;7.484;2023-04-01T11:00:09;8.00;99.90
19220;DHT22;9744;49.364;7.484;2023-04-01T11:03:37;7.90;99.90
19220;DHT22;9744;49.364;7.484;2023-04-01T11:07:08;8.00;99.90
19220;DHT22;9744;49.364;7.484;2023-04-01T11:19:50;7.90;99.90
19220;DHT22;9744;49.364;7.484;2023-04-01T11:25:27;7.90;99.90
19220;DHT22;9744;49.364;7.484;2023-04-01T11:31:29;7.90;99.90
19220;DHT22;9744;49.364;7.484;2023-04-01T11:34:11;7.90;99.90
19220;DHT22;9744;49.364;7.484;2023-04-01T11:36:50;7.90;99.90
19220;DHT22;9744;49.364;7.484;2023-04-01T11:39:36;7.90;99.90
19220;DHT22;9744;49.364;7.484;2023-04-01T11:42:33;7.90;99.90
19220;DHT22;9744;49.364;7.484;2023-04-01T11:45:35;8.00;99.90
19220;DHT22;9744;49.364;7.484;2023-04-01T11:48:27;8.00;99.90
19220;DHT22;9744;49.364;7.484;2023-04-01T11:54:14;7.90;99.90
19220;DHT22;9744;49.364;7.484;2023-04-01T12:00:58;7.90;99.90
19220;DHT22;9744;49.364;7.484;2023-04-01T12:06:44;8.00;99.90
19220;DHT22;9744;49.364;7.484;2023-04-01T12:09:21;8.00;99.90
19220;DHT22;9744;49.364;7.484;2023-04-01T12:12:00;8.00;99.90
19220;DHT22;9744;49.364;7.484;2023-04-01T12:14:36;8.10;99.90
19220;DHT22;9744;49.364;7.484;2023-04-01T12:17:13;8.10;99.90
19220;DHT22;9744;49.364;7.484;2023-04-01T12:19:50;8.20;99.90
19220;DHT22;9744;49.364;7.484;2023-04-01T12:22:43;8.20;99.90
19220;DHT22;9744;49.364;7.484;2023-04-01T12:28:21;8.20;99.90
19220;DHT22;9744;49.364;7.484;2023-04-01T12:30:59;8.10;99.90
19220;DHT22;9744;49.364;7.484;2023-04-01T12:33:53;8.10;99.90
19220;DHT22;9744;49.364;7.484;2023-04-01T12:36:35;8.20;99.90
19220;DHT22;9744;49.364;7.484;2023-04-01T12:39:33;8.10;99.90
19220;DHT22;9744;49.364;7.484;2023-04-01T12:42:14;8.10;99.90
19220;DHT22;9744;49.364;7.484;2023-04-01T12:44:54;8.10;99.90
19220;DHT22;9744;49.364;7.484;2023-04-01T12:47:54;8.10;99.90
19220;DHT22;9744;49.364;7.484;2023-04-01T12:50:42;8.10;99.90
19220;DHT22;9744;49.364;7.484;2023-04-01T12:53:23;8.00;99.90
19220;DHT22;9744;49.364;7.484;2023-04-01T12:56:02;8.10;99.90
19220;DHT22;9744;49.364;7.484;2023-04-01T12:58:57;8.00;99.90
19220;DHT22;9744;49.364;7.484;2023-04-01T13:04:46;8.00;99.90
19220;DHT22;9744;49.364;7.484;2023-04-01T13:07:33;8.00;99.90
19220;DHT22;9744;49.364;7.484;2023-04-01T13:10:12;8.00;99.90
19220;DHT22;9744;49.364;7.484;2023-04-01T13:13:01;8.00;99.90
19220;DHT22;9744;49.364;7.484;2023-04-01T13:15:37;8.00;99.90
19220;DHT22;9744;49.364;7.484;2023-04-01T13:18:17;7.90;99.90
19220;DHT22;9744;49.364;7.484;2023-04-01T13:20:54;8.00;99.90
19220;DHT22;9744;49.364;7.484;2023-04-01T13:23:33;8.00;99.90
19220;DHT22;9744;49.364;7.484;2023-04-01T13:26:12;7.90;99.90
19220;DHT22;9744;49.364;7.484;2023-04-01T13:28:43;7.90;99.90
19220;DHT22;9744;49.364;7.484;2023-04-01T13:31:28;7.90;99.90
19220;DHT22;9744;49.364;7.484;2023-04-01T13:34:07;7.90;99.90
19220;DHT22;9744;49.364;7.484;2023-04-01T13:36:46;7.90;99.90
19220;DHT22;9744;49.364;7.484;2023-04-01T13:39:29;7.90;99.90
19220;DHT22;9744;49.364;7.484;2023-04-01T13:42:09;7.90;99.90
19220;DHT22;9744;49.364;7.484;2023-04-01T13:44:44;7.90;99.90
19220;DHT22;9744;49.364;7.484;2023-04-01T13:56:54;7.90;99.90
19220;DHT22;9744;49.364;7.484;2023-04-01T14:00:00;7.90;99.90
19220;DHT22;9744;49.364;7.484;2023-04-01T14:02:57;7.90;99.90
19220;DHT22;9744;49.364;7.484;2023-04-01T14:05:50;7.90;99.90
19220;DHT22;9744;49.364;7.484;2023-04-01T14:08:39;7.90;99.90
19220;DHT22;9744;49.364;7.484;2023-04-01T14:11:13;7.90;99.90
19220;DHT22;9744;49.364;7.484;2023-04-01T14:13:50;8.00;99.90
19220;DHT22;9744;49.364;7.484;2023-04-01T14:20:22;8.10;99.90
19220;DHT22;9744;49.364;7.484;2023-04-01T14:23:02;8.10;99.90
19220;DHT22;9744;49.364;7.484;2023-04-01T14:28:49;8.00;99.90
19220;DHT22;9744;49.364;7.484;2023-04-01T14:31:37;8.10;99.90
19220;DHT22;9744;49.364;7.484;2023-04-01T14:34:30;8.00;99.90
19220;DHT22;9744;49.364;7.484;2023-04-01T14:37:11;8.00;99.90
19220;DHT22;9744;49.364;7.484;2023-04-01T14:40:14;8.00;99.90
19220;DHT22;9744;49.364;7.484;2023-04-01T14:42:59;8.00;99.90
19220;DHT22;9744;49.364;7.484;2023-04-01T14:46:01;8.10;99.90
19220;DHT22;9744;49.364;7.484;2023-04-01T14:48:34;8.10;99.90
19220;DHT22;9744;49.364;7.484;2023-04-01T14:51:09;8.10;99.90
19220;DHT22;9744;49.364;7.484;2023-04-01T14:53:43;8.20;99.90
19220;DHT22;9744;49.364;7.484;2023-04-01T14:56:35;8.20;99.90
19220;DHT22;9744;49.364;7.484;2023-04-01T14:59:09;8.20;99.90
19220;DHT22;9744;49.364;7.484;2023-04-01T15:01:45;8.10;99.90
19220;DHT22;9744;49.364;7.484;2023-04-01T15:04:35;8.00;99.90
19220;DHT22;9744;49.364;7.484;2023-04-01T15:10:27;7.90;99.90
19220;DHT22;9744;49.364;7.484;2023-04-01T15:13:05;7.90;99.90
19220;DHT22;9744;49.364;7.484;2023-04-01T15:15:50;7.80;99.90
19220;DHT22;9744;49.364;7.484;2023-04-01T15:18:35;7.80;99.90
19220;DHT22;9744;49.364;7.484;2023-04-01T15:21:13;7.80;99.90
19220;DHT22;9744;49.364;7.484;2023-04-01T15:23:51;7.70;99.90
19220;DHT22;9744;49.364;7.484;2023-04-01T15:26:35;7.80;99.90
19220;DHT22;9744;49.364;7.484;2023-04-01T15:29:29;7.80;99.90
19220;DHT22;9744;49.364;7.484;2023-04-01T15:32:01;7.80;99.90
19220;DHT22;9744;49.364;7.484;2023-04-01T15:34:38;7.80;99.90
19220;DHT22;9744;49.364;7.484;2023-04-01T15:37:16;7.80;99.90
19220;DHT22;9744;49.364;7.484;2023-04-01T15:39:54;7.80;99.90
19220;DHT22;9744;49.364;7.484;2023-04-01T15:42:32;7.80;99.90
19220;DHT22;9744;49.364;7.484;2023-04-01T15:45:16;7.80;99.90
19220;DHT22;9744;49.364;7.484;2023-04-01T15:47:59;7.70;99.90
19220;DHT22;9744;49.364;7.484;2023-04-01T15:50:55;7.80;99.90
19220;DHT22;9744;49.364;7.484;2023-04-01T15:53:49;7.80;99.90
19220;DHT22;9744;49.364;7.484;2023-04-01T15:56:28;7.80;99.90
19220;DHT22;9744;49.364;7.484;2023-04-01T15:59:09;7.80;99.90
19220;DHT22;9744;49.364;7.484;2023-04-01T16:01:44;7.80;99.90
19220;DHT22;9744;49.364;7.484;2023-04-01T16:04:31;7.70;99.90
19220;DHT22;9744;49.364;7.484;2023-04-01T16:07:21;7.80;99.90
19220;DHT22;9744;49.364;7.484;2023-04-01T16:10:17;7.80;99.90
19220;DHT22;9744;49.364;7.484;2023-04-01T16:13:03;7.70;99.90
19220;DHT22;9744;49.364;7.484;2023-04-01T16:15:37;7.70;99.90
19220;DHT22;9744;49.364;7.484;2023-04-01T16:18:27;7.60;99.90
19220;DHT22;9744;49.364;7.484;2023-04-01T16:21:02;7.60;99.90
19220;DHT22;9744;49.364;7.484;2023-04-01T16:23:37;7.60;99.90
19220;DHT22;9744;49.364;7.484;2023-04-01T16:26:09;7.60;99.90
19220;DHT22;9744;49.364;7.484;2023-04-01T16:28:48;7.50;99.90
19220;DHT22;9744;49.364;7.484;2023-04-01T16:31:29;7.50;99.90
19220;DHT22;9744;49.364;7.484;2023-04-01T16:34:02;7.50;99.90
19220;DHT22;9744;49.364;7.484;2023-04-01T16:36:37;7.50;99.90
19220;DHT22;9744;49.364;7.484;2023-04-01T16:39:27;7.50;99.90
19220;DHT22;9744;49.364;7.484;2023-04-01T16:42:13;7.40;99.90
19220;DHT22;9744;49.364;7.484;2023-04-01T16:44:50;7.50;99.90
19220;DHT22;9744;49.364;7.484;2023-04-01T16:47:22;7.40;99.90
19220;DHT22;9744;49.364;7.484;2023-04-01T16:49:59;7.40;99.90
19220;DHT22;9744;49.364;7.484;2023-04-01T16:52:40;7.40;99.90
19220;DHT22;9744;49.364;7.484;2023-04-01T16:55:16;7.40;99.90
19220;DHT22;9744;49.364;7.484;2023-04-01T16:57:48;7.40;99.90
19220;DHT22;9744;49.364;7.484;2023-04-01T17:00:24;7.40;99.90
19220;DHT22;9744;49.364;7.484;2023-04-01T17:03:01;7.40;99.90
19220;DHT22;9744;49.364;7.484;2023-04-01T17:05:41;7.40;99.90
19220;DHT22;9744;49.364;7.484;2023-04-01T17:08:17;7.40;99.90
19220;DHT22;9744;49.364;7.484;2023-04-01T17:10:53;7.40;99.90
19220;DHT22;9744;49.364;7.484;2023-04-01T17:13:35;7.40;99.90
19220;DHT22;9744;49.364;7.484;2023-04-01T17:19:05;7.30;99.90
19220;DHT22;9744;49.364;7.484;2023-04-01T17:21:47;7.30;99.90
19220;DHT22;9744;49.364;7.484;2023-04-01T17:24:29;7.30;99.90
19220;DHT22;9744;49.364;7.484;2023-04-01T17:27:06;7.30;99.90
19220;DHT22;9744;49.364;7.484;2023-04-01T17:29:46;7.30;99.90
19220;DHT22;9744;49.364;7.484;2023-04-01T17:32:36;7.30;99.90
19220;DHT22;9744;49.364;7.484;2023-04-01T17:35:05;7.30;99.90
19220;DHT22;9744;49.364;7.484;2023-04-01T17:37:44;7.30;99.90
19220;DHT22;9744;49.364;7.484;2023-04-01T17:40:26;7.30;99.90
19220;DHT22;9744;49.364;7.484;2023-04-01T17:43:03;7.30;99.90
19220;DHT22;9744;49.364;7.484;2023-04-01T17:45:41;7.20;99.90
19220;DHT22;9744;49.364;7.484;2023-04-01T17:48:21;7.20;99.90
19220;DHT22;9744;49.364;7.484;2023-04-01T17:51:02;7.20;99.90
19220;DHT22;9744;49.364;7.484;2023-04-01T17:53:41;7.20;99.90
19220;DHT22;9744;49.364;7.484;2023-04-01T17:56:17;7.20;99.90
19220;DHT22;9744;49.364;7.484;2023-04-01T17:58:53;7.10;99.90
19220;DHT22;9744;49.364;7.484;2023-04-01T18:01:41;7.10;99.90
19220;DHT22;9744;49.364;7.484;2023-04-01T18:07:26;7.10;99.90
19220;DHT22;9744;49.364;7.484;2023-04-01T18:10:13;7.10;99.90
19220;DHT22;9744;49.364;7.484;2023-04-01T18:13:02;7.10;99.90
19220;DHT22;9744;49.364;7.484;2023-04-01T18:15:37;7.10;99.90
19220;DHT22;9744;49.364;7.484;2023-04-01T18:18:25;7.10;99.90
19220;DHT22;9744;49.364;7.484;2023-04-01T18:21:01;7.10;99.90
19220;DHT22;9744;49.364;7.484;2023-04-01T18:23:36;7.10;99.90
19220;DHT22;9744;49.364;7.484;2023-04-01T18:26:09;7.10;99.90
19220;DHT22;9744;49.364;7.484;2023-04-01T18:28:40;7.10;99.90
19220;DHT22;9744;49.364;7.484;2023-04-01T18:31:15;7.10;99.90
19220;DHT22;9744;49.364;7.484;2023-04-01T18:33:48;7.10;99.90
19220;DHT22;9744;49.364;7.484;2023-04-01T18:36:21;7.10;99.90
19220;DHT22;9744;49.364;7.484;2023-04-01T18:38:54;7.10;99.90
19220;DHT22;9744;49.364;7.484;2023-04-01T18:41:35;7.10;99.90
19220;DHT22;9744;49.364;7.484;2023-04-01T18:44:20;7.10;99.90
19220;DHT22;9744;49.364;7.484;2023-04-01T18:46:58;7.10;99.90
19220;DHT22;9744;49.364;7.484;2023-04-01T18:49:29;7.10;99.90
19220;DHT22;9744;49.364;7.484;2023-04-01T18:52:09;7.10;99.90
19220;DHT22;9744;49.364;7.484;2023-04-01T18:54:42;7.10;99.90
19220;DHT22;9744;49.364;7.484;2023-04-01T18:57:13;7.10;99.90
19220;DHT22;9744;49.364;7.484;2023-04-01T18:59:45;7.10;99.90
19220;DHT22;9744;49.364;7.484;2023-04-01T19:02:34;7.10;99.90
19220;DHT22;9744;49.364;7.484;2023-04-01T19:05:05;7.10;99.90
19220;DHT22;9744;49.364;7.484;2023-04-01T19:07:46;7.10;99.90
19220;DHT22;9744;49.364;7.484;2023-04-01T19:10:19;7.10;99.90